createdAt,value
2022-09-14T00:01:37.245Z,19.18
2022-09-14T00:07:57.142Z,19.13
2022-09-14T00:14:20.176Z,19.11
2022-09-14T00:20:40.145Z,19.11
2022-09-14T00:27:03.189Z,19.12
2022-09-14T00:33:23.159Z,19.16
2022-09-14T00:39:46.207Z,19.16
2022-09-14T00:46:06.236Z,19.13
2022-09-14T00:52:29.253Z,19.11
2022-09-14T00:58:49.170Z,19.06
2022-09-14T01:05:12.146Z,19.05
2022-09-14T01:11:32.252Z,19.04
2022-09-14T01:17:55.137Z,19.04
2022-09-14T01:24:15.174Z,19.03
2022-09-14T01:30:38.162Z,18.95
2022-09-14T01:36:58.155Z,18.9
2022-09-14T01:43:21.154Z,18.92
2022-09-14T01:49:41.257Z,18.97
2022-09-14T01:56:04.156Z,18.99
2022-09-14T02:02:24.261Z,18.95
2022-09-14T02:08:47.282Z,18.9
2022-09-14T02:15:07.171Z,18.89
2022-09-14T02:21:30.141Z,18.92
2022-09-14T02:27:50.175Z,18.92
2022-09-14T02:34:13.142Z,18.86
2022-09-14T02:40:33.235Z,18.87
2022-09-14T02:46:56.256Z,18.85
2022-09-14T02:53:16.169Z,18.82
2022-09-14T02:59:39.139Z,18.81
2022-09-14T03:05:59.274Z,18.8
2022-09-14T03:12:22.143Z,18.81
2022-09-14T03:18:42.169Z,18.83
2022-09-14T03:25:05.186Z,18.83
2022-09-14T03:31:25.202Z,18.84
2022-09-14T03:37:48.195Z,18.82
2022-09-14T03:44:08.169Z,18.81
2022-09-14T03:50:31.170Z,18.78
2022-09-14T03:56:51.141Z,18.78
2022-09-14T04:03:14.182Z,18.78
2022-09-14T04:19:21.164Z,18.75
2022-09-14T04:25:41.147Z,18.73
2022-09-14T04:32:04.177Z,18.69
2022-09-14T04:38:24.173Z,18.67
2022-09-14T04:44:47.137Z,18.66
2022-09-14T04:51:07.165Z,18.63
2022-09-14T04:57:30.166Z,18.61
2022-09-14T05:03:50.232Z,18.61
2022-09-14T05:10:13.160Z,18.61
2022-09-14T05:16:33.283Z,18.59
2022-09-14T05:22:56.165Z,18.54
2022-09-14T05:29:16.145Z,18.5
2022-09-14T05:35:39.197Z,18.49
2022-09-14T05:41:59.167Z,18.5
2022-09-14T05:48:22.149Z,18.51
2022-09-14T05:54:42.182Z,18.53
2022-09-14T06:01:05.146Z,18.53
2022-09-14T06:07:25.171Z,18.55
2022-09-14T06:13:48.299Z,18.57
2022-09-14T06:20:08.146Z,18.6
2022-09-14T06:26:31.168Z,18.61
2022-09-14T06:32:51.245Z,18.62
2022-09-14T06:39:14.172Z,18.58
2022-09-14T06:45:34.144Z,18.52
2022-09-14T06:51:57.171Z,18.55
2022-09-14T06:58:17.166Z,18.54
2022-09-14T07:04:40.155Z,18.57
2022-09-14T07:11:00.197Z,18.59
2022-09-14T07:17:23.143Z,18.62
2022-09-14T07:23:43.165Z,18.65
2022-09-14T07:30:06.193Z,18.71
2022-09-14T07:36:26.151Z,18.78
2022-09-14T07:42:49.186Z,18.83
2022-09-14T07:49:09.189Z,18.84
2022-09-14T07:55:32.171Z,18.86
2022-09-14T08:01:52.299Z,18.88
2022-09-14T08:08:15.183Z,18.95
2022-09-14T08:14:35.176Z,19.1
2022-09-14T08:20:58.193Z,19.27
2022-09-14T08:27:18.282Z,19.44
2022-09-14T08:33:41.154Z,19.56
2022-09-14T08:40:01.202Z,19.6
2022-09-14T08:46:24.228Z,19.62
2022-09-14T08:52:44.136Z,19.68
2022-09-14T08:59:07.171Z,19.73
2022-09-14T09:05:27.187Z,19.78
2022-09-14T09:11:50.146Z,19.8
2022-09-14T09:18:10.179Z,19.81
2022-09-14T09:24:36.469Z,19.83
2022-09-14T09:30:53.146Z,19.89
2022-09-14T09:37:16.157Z,19.95
2022-09-14T09:43:49.137Z,19.96
2022-09-14T09:49:59.174Z,19.94
2022-09-14T10:05:49.088Z,19.66
2022-09-14T10:12:09.155Z,19.59
2022-09-14T10:18:32.145Z,19.67
2022-09-14T10:24:52.281Z,19.54
2022-09-14T10:31:15.233Z,19.47
2022-09-14T10:37:35.178Z,19.52
2022-09-14T10:43:58.246Z,19.52
2022-09-14T10:50:18.141Z,19.59
2022-09-14T10:56:41.197Z,19.54
2022-09-14T11:03:01.203Z,19.37
2022-09-14T11:09:24.229Z,19.23
2022-09-14T11:15:44.200Z,19
2022-09-14T11:22:07.183Z,18.87
2022-09-14T11:28:27.174Z,18.78
2022-09-14T11:34:50.170Z,18.81
2022-09-14T11:41:10.204Z,18.94
2022-09-14T11:47:33.155Z,19.11
2022-09-14T11:53:54.222Z,19.19
2022-09-14T12:00:17.388Z,19.14
2022-09-14T12:06:37.147Z,19.32
2022-09-14T12:13:00.360Z,19.56
2022-09-14T12:19:20.425Z,19.85
2022-09-14T12:25:43.187Z,19.92
2022-09-14T12:32:03.150Z,20.08
2022-09-14T12:38:26.202Z,20.18
2022-09-14T12:44:46.173Z,19.94
2022-09-14T12:51:09.394Z,19.72
2022-09-14T12:57:29.273Z,19.6
2022-09-14T13:03:52.158Z,19.58
2022-09-14T13:10:12.190Z,19.53
2022-09-14T13:16:35.171Z,19.47
2022-09-14T13:22:55.170Z,19.35
2022-09-14T13:29:18.167Z,19.26
2022-09-14T13:35:38.403Z,19.24
2022-09-14T13:42:01.177Z,19.25
2022-09-14T13:48:21.205Z,19.25
2022-09-14T13:54:44.297Z,19.3
2022-09-14T14:01:04.338Z,19.34
2022-09-14T14:07:27.188Z,19.3
2022-09-14T14:13:47.307Z,19.27
2022-09-14T14:20:10.202Z,19.29
2022-09-14T14:26:30.301Z,19.44
2022-09-14T14:32:53.299Z,19.38
2022-09-14T14:39:13.196Z,19.25
2022-09-14T14:45:36.738Z,19.1
2022-09-14T14:51:56.206Z,18.96
2022-09-14T14:58:19.192Z,18.82
2022-09-14T15:04:39.167Z,18.58
2022-09-14T15:11:02.244Z,18.36
2022-09-14T15:35:02.174Z,18.15
2022-09-14T15:41:22.157Z,18.17
2022-09-14T15:47:45.241Z,18.15
2022-09-14T15:54:05.181Z,18.07
2022-09-14T16:00:28.191Z,17.98
2022-09-14T16:06:48.203Z,17.86
2022-09-14T16:13:11.207Z,17.78
2022-09-14T16:19:31.248Z,17.71
2022-09-14T16:25:54.214Z,17.68
2022-09-14T16:32:14.287Z,17.64
2022-09-14T16:38:37.228Z,17.6
2022-09-14T16:44:57.171Z,17.55
2022-09-14T16:51:20.298Z,17.51
2022-09-14T16:57:40.181Z,17.44
2022-09-14T17:04:03.206Z,17.4
2022-09-14T17:10:23.259Z,17.35
2022-09-14T17:16:46.225Z,17.27
2022-09-14T17:23:06.287Z,17.21
2022-09-14T17:29:29.326Z,17.18
2022-09-14T17:35:49.193Z,17.16
2022-09-14T17:42:12.202Z,17.13
2022-09-14T17:48:32.349Z,17.14
2022-09-14T17:54:55.254Z,17.11
2022-09-14T18:01:15.180Z,17.06
2022-09-14T18:07:38.217Z,17
2022-09-14T18:13:58.324Z,16.97
2022-09-14T18:20:21.172Z,16.93
2022-09-14T18:26:41.515Z,16.91
2022-09-14T18:33:04.279Z,16.9
2022-09-14T18:39:24.218Z,16.89
2022-09-14T18:45:47.212Z,16.89
2022-09-14T18:52:07.177Z,16.89
2022-09-14T18:58:30.206Z,16.89
2022-09-14T19:04:50.219Z,16.85
2022-09-14T19:11:13.210Z,16.83
2022-09-14T19:17:33.189Z,16.8
2022-09-14T19:23:56.253Z,16.76
2022-09-14T19:30:16.216Z,16.79
2022-09-14T19:36:39.175Z,16.85
2022-09-14T19:42:59.261Z,16.86
2022-09-14T19:49:22.541Z,16.79
2022-09-14T19:55:42.204Z,16.72
2022-09-14T20:02:05.461Z,16.67
2022-09-14T20:08:25.209Z,16.65
2022-09-14T20:14:48.234Z,16.57
2022-09-14T20:38:30.104Z,16.38
2022-09-14T20:44:50.146Z,16.33
2022-09-14T20:51:15.159Z,16.26
2022-09-14T20:57:33.204Z,16.2
2022-09-14T21:03:56.194Z,16.08
2022-09-14T21:10:16.229Z,16.09
2022-09-14T21:16:39.219Z,16.05
2022-09-14T21:22:59.151Z,15.97
2022-09-14T21:29:22.197Z,15.91
2022-09-14T21:35:42.293Z,15.77
2022-09-14T21:42:05.221Z,15.68
2022-09-14T21:48:25.225Z,15.67
2022-09-14T21:54:48.220Z,15.68
2022-09-14T22:20:19.188Z,15.53
2022-09-14T22:26:39.151Z,15.49
2022-09-14T22:33:02.197Z,15.47
2022-09-14T22:39:22.231Z,15.48
2022-09-14T22:45:45.263Z,15.48
2022-09-14T22:52:05.208Z,15.48
2022-09-14T22:58:28.291Z,15.48
2022-09-14T23:04:48.196Z,15.49
2022-09-14T23:11:11.208Z,15.49
2022-09-14T23:17:31.236Z,15.5
2022-09-14T23:23:54.193Z,15.45
2022-09-14T23:30:14.228Z,15.44
2022-09-14T23:36:37.208Z,15.45
2022-09-14T23:42:57.269Z,15.4
2022-09-14T23:49:20.163Z,15.43
2022-09-14T23:55:40.244Z,15.45
